Time;durP1;ratioP1;P1;durP2;ratioP2;P2;SDS_P1;SDS_P2;PMS_P1;PMS_P2;Temp;Humidity;BMP_temperature;BMP_pressure;BME280_temperature;BME280_humidity;BME280_pressure;Samples;Min_cycle;Max_cycle;Signal;HPM_P1;HPM_P2
2022/10/30 00:02:21;;;;;;;76.93;31.58;;;;;;;;;;6290483;28;20170;-68
2022/10/30 00:05:22;;;;;;;86.75;32.97;;;;;;;;;;6291945;28;20048;-69
2022/10/30 00:08:26;;;;;;;85.15;32.97;;;;;;;;;;6291880;28;20056;-68
2022/10/30 00:11:28;;;;;;;90.78;34.08;;;;;;;;;;6290555;28;20044;-68
2022/10/30 00:14:28;;;;;;;87.60;33.15;;;;;;;;;;6291492;28;20048;-69
2022/10/30 00:17:29;;;;;;;93.45;32.70;;;;;;;;;;6291453;28;20064;-68
2022/10/30 00:20:30;;;;;;;88.38;31.02;;;;;;;;;;6291361;28;20052;-68
2022/10/30 00:23:30;;;;;;;78.10;30.73;;;;;;;;;;6290217;28;20934;-68
2022/10/30 00:26:32;;;;;;;85.85;31.85;;;;;;;;;;6286791;28;20471;-67
2022/10/30 00:29:32;;;;;;;97.68;35.88;;;;;;;;;;6288741;28;20136;-67
2022/10/30 00:32:33;;;;;;;99.55;37.00;;;;;;;;;;6288925;28;20044;-68
2022/10/30 00:35:33;;;;;;;95.28;35.47;;;;;;;;;;6291308;28;20048;-70
2022/10/30 00:38:34;;;;;;;96.25;34.38;;;;;;;;;;6293611;28;20055;-68
2022/10/30 00:41:38;;;;;;;97.60;35.60;;;;;;;;;;6295032;28;20125;-67
2022/10/30 00:44:47;;;;;;;100.82;36.00;;;;;;;;;;6295264;28;20406;-66
2022/10/30 00:47:50;;;;;;;97.95;36.30;;;;;;;;;;6295744;28;20470;-70
2022/10/30 00:50:52;;;;;;;98.68;36.42;;;;;;;;;;6296012;28;20070;-68
2022/10/30 00:53:53;;;;;;;;;;;;;;;;;;6294886;28;20044;-68
2022/10/30 00:56:55;;;;;;;107.93;37.15;;;;;;;;;;6295884;28;19921;-67
2022/10/30 00:59:56;;;;;;;103.60;37.17;;;;;;;;;;6296486;28;20076;-68
2022/10/30 01:02:57;;;;;;;108.25;39.63;;;;;;;;;;6291699;28;20083;-68
2022/10/30 01:06:01;;;;;;;118.05;43.83;;;;;;;;;;6295458;28;20151;-67
2022/10/30 01:09:02;;;;;;;110.63;39.50;;;;;;;;;;6295511;28;20087;-69
2022/10/30 01:12:04;;;;;;;122.22;41.15;;;;;;;;;;6294922;28;20436;-70
2022/10/30 01:15:05;;;;;;;126.15;43.35;;;;;;;;;;6295023;28;20403;-65
2022/10/30 01:18:31;;;;;;;131.13;44.00;;;;;;;;;;6295575;28;20067;-67
2022/10/30 01:21:52;;;;;;;129.23;43.55;;;;;;;;;;6295070;28;20094;-67
2022/10/30 01:25:18;;;;;;;130.50;42.20;;;;;;;;;;6280218;28;20151;-64
2022/10/30 01:28:37;;;;;;;131.18;42.88;;;;;;;;;;6280339;28;20044;-64
2022/10/30 01:32:11;;;;;;;133.30;42.95;;;;;;;;;;6281731;28;20060;-64
2022/10/30 01:35:21;;;;;;;133.88;40.70;;;;;;;;;;6271095;28;20068;-67
2022/10/30 01:38:39;;;;;;;138.07;43.40;;;;;;;;;;6268040;28;20164;-70
2022/10/30 01:41:40;;;;;;;137.60;43.97;;;;;;;;;;6268717;28;20049;-67
2022/10/30 01:44:40;;;;;;;144.93;44.65;;;;;;;;;;6269976;28;20045;-69
2022/10/30 01:48:03;;;;;;;131.15;41.65;;;;;;;;;;6274744;28;20045;-70
2022/10/30 01:51:15;;;;;;;132.68;43.08;;;;;;;;;;6294064;28;20055;-67
2022/10/30 01:54:35;;;;;;;122.70;38.97;;;;;;;;;;6273321;28;20060;-68
2022/10/30 01:57:42;;;;;;;131.23;40.40;;;;;;;;;;6271017;28;20140;-68
2022/10/30 02:00:46;;;;;;;126.40;39.42;;;;;;;;;;6270019;28;20071;-66
2022/10/30 02:03:47;;;;;;;134.27;42.40;;;;;;;;;;6270539;28;20118;-69
2022/10/30 02:06:48;;;;;;;138.88;41.90;;;;;;;;;;6268045;28;20048;-69
2022/10/30 02:09:52;;;;;;;124.20;38.88;;;;;;;;;;6271803;28;20078;-70
2022/10/30 02:12:53;;;;;;;137.75;41.30;;;;;;;;;;6267283;28;20507;-70
2022/10/30 02:15:54;;;;;;;127.72;38.95;;;;;;;;;;6264145;28;20143;-68
2022/10/30 02:18:55;;;;;;;128.27;41.28;;;;;;;;;;6268698;28;20077;-67
2022/10/30 02:21:55;;;;;;;142.52;41.33;;;;;;;;;;6271479;28;20044;-68
2022/10/30 02:24:56;;;;;;;135.25;40.10;;;;;;;;;;6269799;28;20048;-69
2022/10/30 02:27:57;;;;;;;126.28;39.47;;;;;;;;;;6266661;28;20057;-70
2022/10/30 02:30:57;;;;;;;143.52;41.67;;;;;;;;;;6268633;28;20059;-69
2022/10/30 02:33:58;;;;;;;131.65;38.55;;;;;;;;;;6267635;28;20059;-70
2022/10/30 02:36:58;;;;;;;127.13;38.92;;;;;;;;;;6272481;28;20095;-68
2022/10/30 02:39:59;;;;;;;131.18;42.33;;;;;;;;;;6282868;28;20147;-69
2022/10/30 02:43:00;;;;;;;135.25;39.50;;;;;;;;;;6286331;28;20283;-70
2022/10/30 02:46:00;;;;;;;132.07;39.88;;;;;;;;;;6268382;28;20102;-69
2022/10/30 02:49:01;;;;;;;138.77;40.15;;;;;;;;;;6269253;28;20044;-69
2022/10/30 02:52:02;;;;;;;133.52;41.67;;;;;;;;;;6267655;28;20484;-68
2022/10/30 02:55:03;;;;;;;135.35;40.47;;;;;;;;;;6267466;28;20138;-69
2022/10/30 02:58:04;;;;;;;138.13;42.42;;;;;;;;;;6265525;28;20561;-69
2022/10/30 03:01:13;;;;;;;138.30;42.30;;;;;;;;;;6271955;28;20053;-70
2022/10/30 03:04:14;;;;;;;152.10;45.05;;;;;;;;;;6268907;28;20097;-68
2022/10/30 03:07:14;;;;;;;149.48;44.85;;;;;;;;;;6278826;28;20060;-68
2022/10/30 03:10:16;;;;;;;160.40;46.97;;;;;;;;;;6286439;28;20049;-69
2022/10/30 03:13:16;;;;;;;150.55;46.25;;;;;;;;;;6266866;28;20049;-70
2022/10/30 03:16:23;;;;;;;160.75;45.65;;;;;;;;;;6265977;28;20538;-70
2022/10/30 03:19:23;;;;;;;158.75;46.17;;;;;;;;;;6273841;28;20402;-70
2022/10/30 03:22:24;;;;;;;149.43;43.17;;;;;;;;;;6286933;28;20132;-69
2022/10/30 03:25:24;;;;;;;171.88;43.53;;;;;;;;;;6260550;28;20211;-68
2022/10/30 03:28:27;;;;;;;154.98;46.15;;;;;;;;;;6265340;28;20045;-68
2022/10/30 03:31:29;;;;;;;142.55;41.88;;;;;;;;;;6269386;28;20107;-70
2022/10/30 03:34:30;;;;;;;150.23;42.35;;;;;;;;;;6269357;28;20065;-71
2022/10/30 03:37:30;;;;;;;152.57;44.53;;;;;;;;;;6266502;28;20041;-70
2022/10/30 03:40:31;;;;;;;152.30;45.13;;;;;;;;;;6287303;28;20107;-68
2022/10/30 03:43:32;;;;;;;158.40;45.97;;;;;;;;;;6278116;28;20037;-66
2022/10/30 03:46:33;;;;;;;152.33;45.33;;;;;;;;;;6267359;28;20175;-70
2022/10/30 03:49:33;;;;;;;155.30;45.47;;;;;;;;;;6268009;28;20047;-70
2022/10/30 03:52:34;;;;;;;159.30;46.75;;;;;;;;;;6266874;28;20497;-67
2022/10/30 03:55:35;;;;;;;148.85;42.85;;;;;;;;;;6267056;28;20629;-68
2022/10/30 03:58:35;;;;;;;165.15;44.15;;;;;;;;;;6267359;28;20041;-70
2022/10/30 04:01:37;;;;;;;144.80;43.15;;;;;;;;;;6279388;28;20074;-69
2022/10/30 04:04:37;;;;;;;147.75;42.63;;;;;;;;;;6290991;28;20080;-68
2022/10/30 04:07:38;;;;;;;143.25;42.63;;;;;;;;;;6268621;28;20040;-67
2022/10/30 04:10:45;;;;;;;150.25;43.40;;;;;;;;;;6280618;28;20044;-70
2022/10/30 04:13:46;;;;;;;142.52;42.25;;;;;;;;;;6290820;28;20501;-70
2022/10/30 04:16:47;;;;;;;155.93;44.28;;;;;;;;;;6274298;28;20045;-68
2022/10/30 04:19:47;;;;;;;167.57;48.78;;;;;;;;;;6272755;28;20045;-69
2022/10/30 04:22:48;;;;;;;165.00;47.65;;;;;;;;;;6272433;28;20086;-68
2022/10/30 04:25:49;;;;;;;148.75;42.92;;;;;;;;;;6272437;28;20409;-70
2022/10/30 04:28:49;;;;;;;158.90;46.15;;;;;;;;;;6271342;28;20053;-69
2022/10/30 04:31:50;;;;;;;166.43;44.85;;;;;;;;;;6273178;28;20475;-70
2022/10/30 04:34:52;;;;;;;179.20;47.33;;;;;;;;;;6273036;28;20045;-69
2022/10/30 04:38:06;;;;;;;164.20;46.05;;;;;;;;;;6286668;28;20040;-68
2022/10/30 04:41:07;;;;;;;173.68;49.42;;;;;;;;;;6287225;28;20157;-69
2022/10/30 04:44:09;;;;;;;175.35;48.67;;;;;;;;;;6275655;28;20051;-70
2022/10/30 04:47:10;;;;;;;173.68;51.03;;;;;;;;;;6295951;28;20076;-69
2022/10/30 04:50:10;;;;;;;173.60;47.58;;;;;;;;;;6278623;28;20395;-69
2022/10/30 04:53:17;;;;;;;172.05;46.63;;;;;;;;;;6274915;28;20144;-69
2022/10/30 04:56:17;;;;;;;172.48;46.47;;;;;;;;;;6270898;28;20415;-70
2022/10/30 04:59:18;;;;;;;179.18;47.95;;;;;;;;;;6295566;28;20080;-68
2022/10/30 05:02:18;;;;;;;175.98;45.67;;;;;;;;;;6276404;28;20135;-69
2022/10/30 05:05:19;;;;;;;168.93;43.63;;;;;;;;;;6270702;28;20056;-70
2022/10/30 05:08:20;;;;;;;171.18;45.03;;;;;;;;;;6265974;28;20049;-67
2022/10/30 05:11:21;;;;;;;156.88;44.28;;;;;;;;;;6281908;28;20133;-68
2022/10/30 05:14:21;;;;;;;163.32;42.80;;;;;;;;;;6290407;28;20514;-70
2022/10/30 05:17:22;;;;;;;168.85;42.42;;;;;;;;;;6270961;28;20036;-68
2022/10/30 05:20:22;;;;;;;173.27;44.60;;;;;;;;;;6274263;28;20483;-70
2022/10/30 05:23:23;;;;;;;180.13;45.65;;;;;;;;;;6282544;28;20135;-69
2022/10/30 05:26:24;;;;;;;173.57;44.38;;;;;;;;;;6277759;28;20040;-70
2022/10/30 05:29:24;;;;;;;165.65;42.75;;;;;;;;;;6285232;28;20119;-69
2022/10/30 05:32:25;;;;;;;164.45;41.10;;;;;;;;;;6277616;28;20131;-68
2022/10/30 05:35:27;;;;;;;168.70;42.97;;;;;;;;;;6269162;28;20269;-69
2022/10/30 05:38:27;;;;;;;163.10;42.67;;;;;;;;;;6269474;28;20037;-68
2022/10/30 05:41:28;;;;;;;166.18;41.83;;;;;;;;;;6272051;28;20441;-69
2022/10/30 05:44:29;;;;;;;150.00;41.50;;;;;;;;;;6289080;28;20052;-69
2022/10/30 05:47:30;;;;;;;184.65;43.72;;;;;;;;;;6267718;28;20045;-69
2022/10/30 05:50:31;;;;;;;177.02;44.67;;;;;;;;;;6271692;28;20587;-71
2022/10/30 05:53:32;;;;;;;193.25;46.05;;;;;;;;;;6273377;28;20088;-67
2022/10/30 05:56:32;;;;;;;186.40;46.28;;;;;;;;;;6270884;28;20049;-70
2022/10/30 05:59:33;;;;;;;192.98;47.10;;;;;;;;;;6269943;28;20117;-68
2022/10/30 06:02:33;;;;;;;182.60;46.58;;;;;;;;;;6271932;28;20055;-67
2022/10/30 06:05:35;;;;;;;190.38;48.85;;;;;;;;;;6277271;28;20049;-69
2022/10/30 06:08:36;;;;;;;179.15;47.35;;;;;;;;;;6291623;28;20076;-69
2022/10/30 06:11:37;;;;;;;171.82;46.22;;;;;;;;;;6276271;28;20400;-69
2022/10/30 06:14:37;;;;;;;174.15;42.50;;;;;;;;;;6271836;28;20048;-70
2022/10/30 06:17:38;;;;;;;177.80;44.20;;;;;;;;;;6266038;28;20139;-67
2022/10/30 06:20:38;;;;;;;159.02;43.67;;;;;;;;;;6269173;28;20049;-69
2022/10/30 06:23:39;;;;;;;169.35;44.35;;;;;;;;;;6270219;28;20122;-69
2022/10/30 06:26:40;;;;;;;181.18;45.90;;;;;;;;;;6268532;28;20431;-68
2022/10/30 06:29:40;;;;;;;160.07;41.10;;;;;;;;;;6271565;28;20041;-69
2022/10/30 06:32:41;;;;;;;156.50;41.35;;;;;;;;;;6265374;28;20125;-68
2022/10/30 06:35:42;;;;;;;159.98;41.88;;;;;;;;;;6272609;28;20448;-70
2022/10/30 06:38:42;;;;;;;164.77;41.42;;;;;;;;;;6267677;28;20040;-67
2022/10/30 06:41:43;;;;;;;166.30;42.72;;;;;;;;;;6270730;28;20472;-68
2022/10/30 06:44:44;;;;;;;167.40;42.03;;;;;;;;;;6269122;28;20055;-70
2022/10/30 06:47:45;;;;;;;142.15;38.58;;;;;;;;;;6279245;28;20048;-67
2022/10/30 06:50:52;;;;;;;159.15;41.45;;;;;;;;;;6290266;28;20079;-67
2022/10/30 06:53:53;;;;;;;158.45;40.85;;;;;;;;;;6293085;28;20423;-68
2022/10/30 06:56:53;;;;;;;163.70;40.75;;;;;;;;;;6291820;28;20139;-68
2022/10/30 06:59:54;;;;;;;155.00;42.20;;;;;;;;;;6292484;28;20495;-66
2022/10/30 07:02:56;;;;;;;154.80;40.65;;;;;;;;;;6289664;28;20049;-67
2022/10/30 07:05:57;;;;;;;156.32;42.00;;;;;;;;;;6288185;28;20135;-69
2022/10/30 07:08:57;;;;;;;147.18;42.35;;;;;;;;;;6291633;28;20445;-68
2022/10/30 07:11:58;;;;;;;153.05;41.63;;;;;;;;;;6288249;28;20059;-68
2022/10/30 07:14:58;;;;;;;156.45;41.72;;;;;;;;;;6288601;28;20056;-68
2022/10/30 07:18:04;;;;;;;154.70;42.38;;;;;;;;;;6287670;28;20452;-68
2022/10/30 07:21:04;;;;;;;151.38;42.97;;;;;;;;;;6265878;28;20602;-71
2022/10/30 07:24:05;;;;;;;148.38;40.83;;;;;;;;;;6269939;28;20052;-70
2022/10/30 07:27:06;;;;;;;157.57;42.25;;;;;;;;;;6273936;28;20048;-70
2022/10/30 07:30:07;;;;;;;141.43;40.78;;;;;;;;;;6258846;28;20194;-68
2022/10/30 07:33:09;;;;;;;168.25;43.75;;;;;;;;;;6274106;28;20443;-69
2022/10/30 07:36:09;;;;;;;149.50;41.08;;;;;;;;;;6272903;28;20076;-70
2022/10/30 07:39:10;;;;;;;154.68;42.33;;;;;;;;;;6274796;28;20048;-68
2022/10/30 07:42:10;;;;;;;141.45;40.03;;;;;;;;;;6272805;28;20140;-67
2022/10/30 07:45:11;;;;;;;127.75;38.70;;;;;;;;;;6282020;28;20140;-64
2022/10/30 07:48:12;;;;;;;145.15;43.45;;;;;;;;;;6265401;28;20131;-64
2022/10/30 07:51:14;;;;;;;129.32;39.80;;;;;;;;;;6269159;28;20123;-65
2022/10/30 07:54:14;;;;;;;;;;;;;;;;;;6279463;28;20136;-66
2022/10/30 07:57:15;;;;;;;128.98;42.33;;;;;;;;;;6266229;28;20393;-66
2022/10/30 08:00:16;;;;;;;123.05;40.40;;;;;;;;;;6267283;28;20575;-67
2022/10/30 08:03:16;;;;;;;118.45;35.70;;;;;;;;;;6268042;28;20128;-67
2022/10/30 08:06:17;;;;;;;126.50;39.33;;;;;;;;;;6278527;28;20105;-67
2022/10/30 08:09:17;;;;;;;120.03;38.72;;;;;;;;;;6291073;28;20047;-66
2022/10/30 08:12:18;;;;;;;129.45;36.55;;;;;;;;;;6291885;28;20037;-69
2022/10/30 08:15:19;;;;;;;119.45;36.13;;;;;;;;;;6291387;28;20529;-66
2022/10/30 08:18:19;;;;;;;105.68;34.03;;;;;;;;;;6283897;28;20087;-66
2022/10/30 08:21:20;;;;;;;108.20;33.60;;;;;;;;;;6280299;28;20483;-66
2022/10/30 08:24:21;;;;;;;106.55;33.33;;;;;;;;;;6289431;28;20149;-65
2022/10/30 08:27:21;;;;;;;96.03;34.58;;;;;;;;;;6289487;28;20037;-70
2022/10/30 08:30:23;;;;;;;99.82;35.28;;;;;;;;;;6291533;28;20154;-67
2022/10/30 08:33:24;;;;;;;;;;;;;;;;;;6292692;28;20041;-65
2022/10/30 08:36:25;;;;;;;88.57;30.60;;;;;;;;;;6285070;28;19924;-67
2022/10/30 08:39:25;;;;;;;78.97;29.20;;;;;;;;;;6282656;28;20059;-65
2022/10/30 08:42:26;;;;;;;79.05;27.63;;;;;;;;;;6285358;28;20403;-63
2022/10/30 08:45:27;;;;;;;77.35;27.08;;;;;;;;;;6291508;28;20529;-65
2022/10/30 08:48:27;;;;;;;69.20;26.27;;;;;;;;;;6287671;28;20128;-67
2022/10/30 08:51:32;;;;;;;74.03;26.23;;;;;;;;;;6291231;28;20124;-65
2022/10/30 08:54:33;;;;;;;66.97;24.05;;;;;;;;;;6284552;28;20068;-62
2022/10/30 08:57:36;;;;;;;59.38;23.38;;;;;;;;;;6265431;28;20047;-69
2022/10/30 09:00:37;;;;;;;63.70;23.77;;;;;;;;;;6279227;28;20462;-67
2022/10/30 09:03:38;;;;;;;56.45;22.02;;;;;;;;;;6270956;28;20133;-67
2022/10/30 09:06:39;;;;;;;55.03;22.00;;;;;;;;;;6270686;28;20071;-68
2022/10/30 09:09:39;;;;;;;57.28;22.52;;;;;;;;;;6270580;28;20441;-66
2022/10/30 09:12:40;;;;;;;48.05;21.40;;;;;;;;;;6291350;28;20041;-62
2022/10/30 09:15:41;;;;;;;49.63;20.70;;;;;;;;;;6293069;28;20040;-68
2022/10/30 09:18:41;;;;;;;54.67;21.50;;;;;;;;;;6294391;28;20047;-69
2022/10/30 09:21:42;;;;;;;53.17;21.05;;;;;;;;;;6295385;28;20036;-62
2022/10/30 09:24:43;;;;;;;52.47;19.80;;;;;;;;;;6295753;28;20048;-63
2022/10/30 09:27:43;;;;;;;54.92;22.23;;;;;;;;;;6293415;28;20044;-68
2022/10/30 09:30:44;;;;;;;54.53;23.55;;;;;;;;;;6284896;28;20033;-68
2022/10/30 09:33:44;;;;;;;50.80;21.73;;;;;;;;;;6295697;28;20044;-66
2022/10/30 09:36:46;;;;;;;44.70;19.63;;;;;;;;;;6287433;28;20148;-65
2022/10/30 09:39:47;;;;;;;44.92;21.48;;;;;;;;;;6268470;28;20072;-65
2022/10/30 09:42:49;;;;;;;47.42;18.40;;;;;;;;;;6271520;28;20492;-66
2022/10/30 09:45:56;;;;;;;42.00;18.50;;;;;;;;;;6281658;28;20037;-68
2022/10/30 09:49:12;;;;;;;44.13;18.77;;;;;;;;;;6268787;28;20171;-66
2022/10/30 09:52:26;;;;;;;41.90;18.40;;;;;;;;;;6259297;28;20511;-65
2022/10/30 09:55:39;;;;;;;180.55;118.22;;;;;;;;;;6264676;28;20147;-63
2022/10/30 09:58:39;;;;;;;;;;;;;;;;;;6270068;28;20063;-67
2022/10/30 10:02:16;;;;;;;48.80;24.02;;;;;;;;;;6268427;28;20279;-68
2022/10/30 10:05:22;;;;;;;43.78;20.10;;;;;;;;;;6269005;28;20126;-65
2022/10/30 10:08:33;;;;;;;69.53;41.20;;;;;;;;;;6268213;28;20139;-63
2022/10/30 10:11:41;;;;;;;42.17;17.13;;;;;;;;;;6268565;28;20072;-63
2022/10/30 10:14:45;;;;;;;40.50;17.08;;;;;;;;;;6268223;28;20202;-64
2022/10/30 10:17:46;;;;;;;39.13;16.38;;;;;;;;;;6284841;28;20044;-63
2022/10/30 10:20:51;;;;;;;34.10;16.05;;;;;;;;;;6286069;28;20393;-65
2022/10/30 10:23:54;;;;;;;34.00;15.50;;;;;;;;;;6268413;28;20049;-69
2022/10/30 10:27:07;;;;;;;38.60;16.70;;;;;;;;;;6288169;28;20143;-63
2022/10/30 10:30:15;;;;;;;41.42;16.20;;;;;;;;;;6292718;28;20037;-67
2022/10/30 10:33:32;;;;;;;41.63;17.52;;;;;;;;;;6289584;28;20139;-66
2022/10/30 10:36:43;;;;;;;38.13;16.77;;;;;;;;;;6289867;28;20167;-62
2022/10/30 10:40:02;;;;;;;44.23;19.43;;;;;;;;;;6291998;28;20762;-67
2022/10/30 10:43:21;;;;;;;47.50;18.63;;;;;;;;;;6289392;28;20052;-65
2022/10/30 10:46:50;;;;;;;41.55;17.83;;;;;;;;;;6293411;28;20625;-65
2022/10/30 10:50:03;;;;;;;50.30;17.67;;;;;;;;;;6291838;28;20052;-64
2022/10/30 10:53:09;;;;;;;41.40;17.63;;;;;;;;;;6268003;28;20048;-62
2022/10/30 10:56:11;;;;;;;43.60;17.25;;;;;;;;;;6269056;28;20102;-62
2022/10/30 10:59:15;;;;;;;;;;;;;;;;;;6268052;28;20531;-63
2022/10/30 11:02:38;;;;;;;46.33;17.42;;;;;;;;;;6286221;28;19924;-67
2022/10/30 11:05:47;;;;;;;38.33;16.90;;;;;;;;;;6288003;28;20768;-66
2022/10/30 11:08:49;;;;;;;41.05;17.40;;;;;;;;;;6292486;28;20052;-62
2022/10/30 11:11:52;;;;;;;37.50;15.80;;;;;;;;;;6292528;28;20098;-64
2022/10/30 11:14:52;;;;;;;44.05;17.20;;;;;;;;;;6291274;28;20484;-65
2022/10/30 11:18:05;;;;;;;42.93;16.07;;;;;;;;;;6292549;28;20170;-65
2022/10/30 11:21:31;;;;;;;35.78;14.82;;;;;;;;;;6292189;28;20054;-65
2022/10/30 11:24:33;;;;;;;33.30;13.80;;;;;;;;;;6285229;28;20131;-70
2022/10/30 11:27:34;;;;;;;31.52;13.32;;;;;;;;;;6289376;28;20041;-64
2022/10/30 11:30:35;;;;;;;30.97;13.37;;;;;;;;;;6292531;28;20097;-65
2022/10/30 11:33:36;;;;;;;32.03;13.43;;;;;;;;;;6292397;28;20045;-66
2022/10/30 11:36:36;;;;;;;39.27;14.17;;;;;;;;;;6291397;28;20106;-64
2022/10/30 11:39:37;;;;;;;35.37;13.37;;;;;;;;;;6292588;28;20055;-67
2022/10/30 11:42:46;;;;;;;32.53;12.77;;;;;;;;;;6292082;28;20041;-65
2022/10/30 11:45:47;;;;;;;30.23;13.32;;;;;;;;;;6290805;28;20384;-64
2022/10/30 11:48:53;;;;;;;32.20;11.88;;;;;;;;;;6285391;28;20119;-67
2022/10/30 11:51:54;;;;;;;32.03;13.25;;;;;;;;;;6280641;28;20048;-67
2022/10/30 11:54:59;;;;;;;28.97;12.50;;;;;;;;;;6275105;28;20083;-69
2022/10/30 11:58:00;;;;;;;30.77;12.60;;;;;;;;;;6281857;28;20084;-68
2022/10/30 12:01:21;;;;;;;33.87;13.00;;;;;;;;;;6285075;28;20094;-70
2022/10/30 12:04:24;;;;;;;34.25;12.95;;;;;;;;;;6281091;28;20041;-67
2022/10/30 12:07:32;;;;;;;31.92;12.88;;;;;;;;;;6266631;28;20077;-68
2022/10/30 12:10:51;;;;;;;36.20;13.68;;;;;;;;;;6261880;28;20049;-68
2022/10/30 12:13:53;;;;;;;34.67;13.15;;;;;;;;;;6264691;28;20107;-63
2022/10/30 12:16:55;;;;;;;33.10;12.63;;;;;;;;;;6264994;28;20038;-67
2022/10/30 12:19:56;;;;;;;29.00;12.38;;;;;;;;;;6263898;28;20122;-66
2022/10/30 12:22:58;;;;;;;30.03;12.63;;;;;;;;;;6268258;28;20052;-66
2022/10/30 12:26:06;;;;;;;29.85;13.20;;;;;;;;;;6274730;28;20388;-67
2022/10/30 12:29:14;;;;;;;33.13;12.40;;;;;;;;;;6285690;28;20040;-71
2022/10/30 12:32:18;;;;;;;28.98;11.27;;;;;;;;;;6291669;28;20045;-72
2022/10/30 12:35:57;;;;;;;36.20;12.02;;;;;;;;;;6296352;28;20036;-71
2022/10/30 12:39:06;;;;;;;28.02;11.48;;;;;;;;;;6271381;28;20492;-69
2022/10/30 12:42:13;;;;;;;31.05;12.10;;;;;;;;;;6264001;28;20052;-67
2022/10/30 12:45:22;;;;;;;32.92;12.82;;;;;;;;;;6284445;28;20547;-66
2022/10/30 12:48:31;;;;;;;31.65;12.65;;;;;;;;;;6272312;28;20072;-67
2022/10/30 12:51:39;;;;;;;28.83;12.40;;;;;;;;;;6279344;28;20476;-64
2022/10/30 12:55:01;;;;;;;26.27;12.70;;;;;;;;;;6294980;28;20052;-63
2022/10/30 12:58:02;;;;;;;;;;;;;;;;;;6295603;28;20056;-63
2022/10/30 13:01:25;;;;;;;30.40;12.50;;;;;;;;;;6287602;28;20015;-67
2022/10/30 13:04:35;;;;;;;36.97;12.55;;;;;;;;;;6267246;28;20145;-65
2022/10/30 13:08:01;;;;;;;30.52;13.00;;;;;;;;;;6270044;28;20049;-65
2022/10/30 13:11:06;;;;;;;29.70;12.38;;;;;;;;;;6270081;28;20114;-65
2022/10/30 13:14:13;;;;;;;28.58;13.07;;;;;;;;;;6269266;28;20518;-66
2022/10/30 13:17:14;;;;;;;32.10;12.82;;;;;;;;;;6271691;28;20140;-72
2022/10/30 13:20:15;;;;;;;29.05;12.38;;;;;;;;;;6268109;28;20045;-67
2022/10/30 13:23:30;;;;;;;26.95;12.35;;;;;;;;;;6282871;28;20055;-65
2022/10/30 13:26:56;;;;;;;35.13;14.40;;;;;;;;;;6268673;28;20116;-66
2022/10/30 13:30:04;;;;;;;35.20;15.38;;;;;;;;;;6279044;28;20076;-69
2022/10/30 13:33:22;;;;;;;33.30;13.75;;;;;;;;;;6271086;28;20145;-69
2022/10/30 13:36:52;;;;;;;31.38;13.45;;;;;;;;;;6272109;28;20048;-66
2022/10/30 13:40:04;;;;;;;30.80;13.27;;;;;;;;;;6274354;28;20098;-68
2022/10/30 13:43:17;;;;;;;28.45;13.93;;;;;;;;;;6270542;28;20956;-70
2022/10/30 13:46:48;;;;;;;39.40;14.10;;;;;;;;;;6269758;28;20198;-65
2022/10/30 13:50:22;;;;;;;28.30;13.10;;;;;;;;;;6269672;28;20045;-70
2022/10/30 13:53:28;;;;;;;35.28;13.75;;;;;;;;;;6274041;28;20041;-66
2022/10/30 13:56:30;;;;;;;34.30;14.55;;;;;;;;;;6286403;28;20078;-71
2022/10/30 13:59:49;;;;;;;34.30;13.95;;;;;;;;;;6279803;28;20537;-66
2022/10/30 14:03:11;;;;;;;32.83;14.93;;;;;;;;;;6269061;28;20055;-66
2022/10/30 14:06:32;;;;;;;35.13;15.02;;;;;;;;;;6273491;28;20174;-65
2022/10/30 14:10:14;;;;;;;33.55;15.20;;;;;;;;;;6288959;28;20052;-66
2022/10/30 14:13:25;;;;;;;32.25;14.77;;;;;;;;;;6275105;28;20086;-71
2022/10/30 14:16:31;;;;;;;38.03;15.73;;;;;;;;;;6265334;28;20464;-68
2022/10/30 14:19:36;;;;;;;35.03;15.18;;;;;;;;;;6284668;28;20408;-67
2022/10/30 14:22:36;;;;;;;43.67;17.15;;;;;;;;;;6287794;28;20045;-66
2022/10/30 14:25:37;;;;;;;39.37;15.60;;;;;;;;;;6268385;28;20514;-69
2022/10/30 14:28:42;;;;;;;38.37;16.30;;;;;;;;;;6287697;28;20048;-70
2022/10/30 14:31:42;;;;;;;38.13;15.80;;;;;;;;;;6280579;28;22139;-72
2022/10/30 14:34:45;;;;;;;35.03;15.43;;;;;;;;;;6287256;28;20152;-71
2022/10/30 14:37:46;;;;;;;34.08;15.48;;;;;;;;;;6275644;28;20045;-71
2022/10/30 14:40:53;;;;;;;39.53;15.90;;;;;;;;;;6270244;28;20060;-71
2022/10/30 14:44:28;;;;;;;34.58;16.25;;;;;;;;;;6268776;28;20123;-66
2022/10/30 14:47:51;;;;;;;36.58;15.88;;;;;;;;;;6265657;28;20049;-66
2022/10/30 14:51:04;;;;;;;38.67;17.60;;;;;;;;;;6263509;28;20091;-70
2022/10/30 14:54:28;;;;;;;38.63;15.75;;;;;;;;;;6268813;28;20419;-64
2022/10/30 14:58:04;;;;;;;33.63;15.82;;;;;;;;;;6281127;28;20465;-67
2022/10/30 15:01:07;;;;;;;34.30;16.48;;;;;;;;;;6183273;28;20046;-66
2022/10/30 15:04:23;;;;;;;39.05;15.05;;;;;;;;;;6268900;28;20143;-64
2022/10/30 15:07:38;;;;;;;32.60;16.02;;;;;;;;;;6269868;28;20049;-66
2022/10/30 15:10:59;;;;;;;31.67;15.32;;;;;;;;;;6283543;28;20076;-65
2022/10/30 15:14:12;;;;;;;36.05;18.75;;;;;;;;;;6278910;28;20450;-66
2022/10/30 15:17:27;;;;;;;44.13;20.60;;;;;;;;;;6245053;28;20140;-67
2022/10/30 15:20:32;;;;;;;41.88;20.33;;;;;;;;;;6255547;28;20041;-67
2022/10/30 15:23:35;;;;;;;42.85;19.45;;;;;;;;;;6255564;28;20041;-69
2022/10/30 15:26:38;;;;;;;38.25;18.25;;;;;;;;;;6256456;28;20053;-67
2022/10/30 15:29:47;;;;;;;43.17;17.92;;;;;;;;;;6258354;28;20045;-62
2022/10/30 15:32:49;;;;;;;39.63;17.65;;;;;;;;;;6258892;28;20044;-64
2022/10/30 15:35:50;;;;;;;36.35;17.55;;;;;;;;;;6260823;28;20060;-64
2022/10/30 15:39:05;;;;;;;37.93;17.70;;;;;;;;;;6254788;28;20479;-63
2022/10/30 15:42:08;;;;;;;44.03;18.63;;;;;;;;;;6262019;28;20044;-67
2022/10/30 15:45:21;;;;;;;35.58;19.05;;;;;;;;;;6260684;28;20048;-66
2022/10/30 15:48:32;;;;;;;42.67;17.65;;;;;;;;;;6257939;28;20133;-71
2022/10/30 15:51:34;;;;;;;41.10;17.20;;;;;;;;;;6259963;28;20052;-70
2022/10/30 15:54:35;;;;;;;;;;;;;;;;;;6260383;28;20060;-64
2022/10/30 15:57:44;;;;;;;41.20;16.93;;;;;;;;;;6256522;28;19932;-67
2022/10/30 16:00:58;;;;;;;39.40;18.63;;;;;;;;;;6258545;28;20041;-64
2022/10/30 16:03:59;;;;;;;45.95;18.95;;;;;;;;;;6258100;28;20142;-65
2022/10/30 16:07:03;;;;;;;41.33;19.90;;;;;;;;;;6257341;28;20179;-67
2022/10/30 16:10:08;;;;;;;43.65;18.95;;;;;;;;;;6259122;28;20806;-63
2022/10/30 16:13:17;;;;;;;52.30;24.63;;;;;;;;;;6258558;28;20130;-64
2022/10/30 16:16:27;;;;;;;44.30;22.58;;;;;;;;;;6258148;28;20125;-68
2022/10/30 16:19:36;;;;;;;45.15;19.92;;;;;;;;;;6257607;28;20049;-66
2022/10/30 16:22:38;;;;;;;46.15;20.38;;;;;;;;;;6258530;28;20052;-64
2022/10/30 16:25:39;;;;;;;41.42;18.40;;;;;;;;;;6251132;28;20515;-65
2022/10/30 16:28:46;;;;;;;40.93;19.17;;;;;;;;;;6259545;28;20048;-64
2022/10/30 16:31:48;;;;;;;45.92;18.65;;;;;;;;;;6259505;28;20053;-65
2022/10/30 16:34:50;;;;;;;44.97;18.15;;;;;;;;;;6259068;28;20545;-69
2022/10/30 16:37:51;;;;;;;43.95;17.88;;;;;;;;;;6259817;28;20148;-64
2022/10/30 16:40:52;;;;;;;39.20;18.17;;;;;;;;;;6261908;28;20147;-63
2022/10/30 16:44:11;;;;;;;42.53;18.47;;;;;;;;;;6263265;28;20469;-64
2022/10/30 16:47:15;;;;;;;45.45;17.48;;;;;;;;;;6258015;28;20385;-68
2022/10/30 16:50:16;;;;;;;56.50;22.98;;;;;;;;;;6260922;28;20099;-66
2022/10/30 16:53:24;;;;;;;46.05;18.90;;;;;;;;;;6258803;28;20056;-62
2022/10/30 16:56:29;;;;;;;49.70;19.33;;;;;;;;;;6256276;28;20049;-67
2022/10/30 16:59:34;;;;;;;55.00;21.20;;;;;;;;;;6261890;28;20174;-64
2022/10/30 17:02:41;;;;;;;46.35;19.80;;;;;;;;;;6260722;28;20142;-62
2022/10/30 17:05:42;;;;;;;46.80;18.90;;;;;;;;;;6259763;28;20834;-66
2022/10/30 17:08:43;;;;;;;48.33;18.10;;;;;;;;;;6258560;28;20047;-63
2022/10/30 17:11:46;;;;;;;40.60;18.55;;;;;;;;;;6255348;28;20049;-66
2022/10/30 17:14:52;;;;;;;49.55;22.48;;;;;;;;;;6259682;28;20754;-64
2022/10/30 17:18:10;;;;;;;53.00;18.90;;;;;;;;;;6254816;28;20051;-64
2022/10/30 17:21:13;;;;;;;40.55;17.60;;;;;;;;;;6263957;28;20132;-63
2022/10/30 17:24:24;;;;;;;42.45;16.85;;;;;;;;;;6264885;28;20533;-65
2022/10/30 17:27:36;;;;;;;40.45;16.25;;;;;;;;;;6260541;28;20049;-71
2022/10/30 17:30:42;;;;;;;52.65;18.50;;;;;;;;;;6257849;28;20051;-65
2022/10/30 17:33:43;;;;;;;89.45;27.70;;;;;;;;;;6266796;28;20068;-67
2022/10/30 17:36:46;;;;;;;67.57;23.67;;;;;;;;;;6264440;28;20045;-68
2022/10/30 17:39:46;;;;;;;70.18;24.13;;;;;;;;;;6258933;28;20091;-65
2022/10/30 17:42:48;;;;;;;45.55;17.52;;;;;;;;;;6260425;28;20059;-63
2022/10/30 17:45:48;;;;;;;43.42;17.55;;;;;;;;;;6261980;28;20049;-63
2022/10/30 17:48:49;;;;;;;40.95;16.25;;;;;;;;;;6262769;28;20447;-67
2022/10/30 17:51:50;;;;;;;43.28;17.42;;;;;;;;;;6262119;28;20456;-66
2022/10/30 17:54:50;;;;;;;40.20;16.08;;;;;;;;;;6263352;28;20051;-63